createdAt,value
2023-08-02T00:01:09.015Z,1.40
2023-08-02T00:03:35.794Z,1.30
2023-08-02T00:06:02.675Z,1.40
2023-08-02T00:08:30.265Z,1.58
2023-08-02T00:10:57.206Z,1.65
2023-08-02T00:13:23.903Z,1.80
2023-08-02T00:15:53.664Z,1.73
2023-08-02T00:18:20.578Z,1.50
2023-08-02T00:20:48.422Z,1.33
2023-08-02T00:23:15.631Z,1.42
2023-08-02T00:25:42.293Z,1.42
2023-08-02T00:28:08.939Z,1.50
2023-08-02T00:30:44.942Z,1.45
2023-08-02T00:33:12.172Z,1.58
2023-08-02T00:35:47.950Z,1.60
2023-08-02T00:38:14.968Z,1.80
2023-08-02T00:40:41.934Z,1.90
2023-08-02T00:43:08.661Z,1.65
2023-08-02T00:45:36.910Z,1.48
2023-08-02T00:48:04.021Z,1.58
2023-08-02T00:50:34.379Z,1.65
2023-08-02T00:53:01.305Z,1.67
2023-08-02T00:55:28.426Z,1.33
2023-08-02T00:57:55.045Z,1.30
2023-08-02T01:00:21.949Z,1.60
2023-08-02T01:02:48.672Z,1.58
2023-08-02T01:05:15.520Z,1.58
2023-08-02T01:07:52.668Z,1.60
2023-08-02T01:10:43.617Z,1.40
2023-08-02T01:13:15.071Z,1.60
2023-08-02T01:15:42.221Z,1.55
2023-08-02T01:18:09.626Z,1.73
2023-08-02T01:20:36.499Z,2.10
2023-08-02T01:23:03.112Z,1.70
2023-08-02T01:25:32.594Z,1.60
2023-08-02T01:28:03.365Z,1.60
2023-08-02T01:30:34.873Z,2.35
2023-08-02T01:33:01.651Z,1.80
2023-08-02T01:35:28.968Z,1.50
2023-08-02T01:37:56.142Z,1.65
2023-08-02T01:40:22.955Z,1.70
2023-08-02T01:42:49.633Z,2.30
2023-08-02T01:45:16.295Z,1.50
2023-08-02T01:47:42.971Z,1.95
2023-08-02T01:50:09.927Z,1.95
2023-08-02T01:52:36.573Z,1.80
2023-08-02T01:55:03.270Z,1.95
2023-08-02T01:57:29.912Z,2.00
2023-08-02T01:59:57.062Z,2.00
2023-08-02T02:02:23.756Z,2.30
2023-08-02T02:04:52.160Z,2.30
2023-08-02T02:07:18.905Z,2.20
2023-08-02T02:09:45.537Z,2.58
2023-08-02T02:12:12.219Z,2.20
2023-08-02T02:14:38.800Z,2.17
2023-08-02T02:17:05.462Z,2.42
2023-08-02T02:19:32.094Z,2.20
2023-08-02T02:21:58.734Z,3.05
2023-08-02T02:24:25.445Z,2.28
2023-08-02T02:26:52.037Z,3.17
2023-08-02T02:29:18.666Z,2.45
2023-08-02T02:31:45.288Z,2.28
2023-08-02T02:34:12.064Z,2.33
2023-08-02T02:36:39.939Z,3.28
2023-08-02T02:39:06.909Z,2.28
2023-08-02T02:41:33.544Z,2.42
2023-08-02T02:44:00.123Z,3.00
2023-08-02T02:46:26.728Z,2.85
2023-08-02T02:48:53.668Z,2.50
2023-08-02T02:51:20.291Z,3.03
2023-08-02T02:53:46.911Z,2.88
2023-08-02T02:56:13.615Z,3.60
2023-08-02T02:58:40.191Z,3.85
2023-08-02T03:01:06.839Z,3.38
2023-08-02T03:03:33.588Z,3.05
2023-08-02T03:06:00.505Z,2.85
2023-08-02T03:08:27.123Z,2.63
2023-08-02T03:10:53.821Z,2.50
2023-08-02T03:13:20.398Z,2.90
2023-08-02T03:15:46.972Z,2.90
2023-08-02T03:18:13.714Z,2.42
2023-08-02T03:20:40.895Z,2.92
2023-08-02T03:23:08.675Z,2.40
2023-08-02T03:25:35.435Z,2.47
2023-08-02T03:28:02.086Z,2.92
2023-08-02T03:30:28.703Z,3.10
2023-08-02T03:32:55.494Z,2.78
2023-08-02T03:35:22.170Z,3.20
2023-08-02T03:37:48.756Z,2.78
2023-08-02T03:40:15.400Z,2.42
2023-08-02T03:42:42.076Z,2.38
2023-08-02T03:45:09.059Z,2.88
2023-08-02T03:47:35.724Z,3.33
2023-08-02T03:50:02.402Z,3.47
2023-08-02T03:52:29.035Z,3.15
2023-08-02T03:54:55.775Z,3.85
2023-08-02T03:57:22.430Z,3.40
2023-08-02T03:59:49.012Z,3.22
2023-08-02T04:02:15.763Z,4.30
2023-08-02T04:04:44.344Z,3.25
2023-08-02T04:07:11.217Z,3.08
2023-08-02T04:09:37.872Z,2.60
2023-08-02T04:12:05.029Z,3.17
2023-08-02T04:14:31.695Z,2.80
2023-08-02T04:16:58.324Z,2.70
2023-08-02T04:19:26.842Z,2.97
2023-08-02T04:21:53.451Z,3.58
2023-08-02T04:24:20.211Z,4.05
2023-08-02T04:26:46.801Z,4.07
2023-08-02T04:29:13.500Z,3.13
2023-08-02T04:31:40.315Z,3.60
2023-08-02T04:34:07.109Z,2.97
2023-08-02T04:36:33.775Z,3.20
2023-08-02T04:39:03.457Z,3.17
2023-08-02T04:41:30.222Z,3.10
2023-08-02T04:43:56.893Z,3.08
2023-08-02T04:46:26.768Z,2.70
2023-08-02T04:48:53.598Z,2.90
2023-08-02T04:51:20.377Z,3.85
2023-08-02T04:53:49.616Z,3.13
2023-08-02T04:56:16.643Z,2.60
2023-08-02T04:58:43.565Z,2.67
2023-08-02T05:01:10.358Z,2.65
2023-08-02T05:03:37.508Z,3.05
2023-08-02T05:06:06.730Z,2.03
2023-08-02T05:08:37.372Z,2.58
2023-08-02T05:11:09.987Z,2.38
2023-08-02T05:13:36.742Z,2.30
2023-08-02T05:16:03.540Z,2.08
2023-08-02T05:18:30.212Z,2.63
2023-08-02T05:20:56.861Z,2.42
2023-08-02T05:23:23.522Z,2.55
2023-08-02T05:25:50.174Z,2.17
2023-08-02T05:28:16.908Z,3.25
2023-08-02T05:30:43.706Z,2.30
2023-08-02T05:33:10.395Z,3.15
2023-08-02T05:35:37.068Z,2.92
2023-08-02T05:38:04.150Z,2.22
2023-08-02T05:40:30.764Z,2.55
2023-08-02T05:42:57.919Z,2.70
2023-08-02T05:45:25.333Z,2.40
2023-08-02T05:47:52.236Z,2.45
2023-08-02T05:50:18.975Z,2.53
2023-08-02T05:52:45.683Z,2.28
2023-08-02T05:55:13.423Z,2.92
2023-08-02T05:57:40.701Z,1.83
2023-08-02T06:00:08.515Z,2.60
2023-08-02T06:02:35.717Z,1.92
2023-08-02T06:05:02.930Z,2.47
2023-08-02T06:07:30.988Z,2.92
2023-08-02T06:09:57.656Z,3.15
2023-08-02T06:12:24.467Z,2.58
2023-08-02T06:14:51.121Z,2.65
2023-08-02T06:17:18.086Z,2.83
2023-08-02T06:19:44.847Z,2.75
2023-08-02T06:22:11.890Z,2.35
2023-08-02T06:24:38.625Z,2.78
2023-08-02T06:27:05.589Z,2.90
2023-08-02T06:29:33.026Z,2.78
2023-08-02T06:32:02.007Z,2.63
2023-08-02T06:34:31.352Z,2.47
2023-08-02T06:36:58.222Z,3.53
2023-08-02T06:39:25.362Z,2.85
2023-08-02T06:41:51.982Z,2.90
2023-08-02T06:44:19.519Z,2.40
2023-08-02T06:46:46.272Z,3.45
2023-08-02T06:49:12.981Z,2.70
2023-08-02T06:51:39.882Z,2.50
2023-08-02T06:54:06.883Z,2.72
2023-08-02T06:56:38.657Z,3.13
2023-08-02T06:59:05.554Z,2.38
2023-08-02T07:01:32.245Z,2.40
2023-08-02T07:03:58.885Z,2.53
2023-08-02T07:06:27.987Z,2.75
2023-08-02T07:08:55.017Z,2.33
2023-08-02T07:11:35.760Z,2.88
2023-08-02T07:14:15.808Z,2.75
2023-08-02T07:16:50.795Z,2.55
2023-08-02T07:19:20.202Z,2.75
2023-08-02T07:21:49.354Z,2.58
2023-08-02T07:24:17.465Z,2.55
2023-08-02T07:26:44.096Z,2.65
2023-08-02T07:29:15.232Z,2.90
2023-08-02T07:31:42.191Z,2.92
2023-08-02T07:34:09.034Z,3.15
2023-08-02T07:36:37.624Z,2.58
2023-08-02T07:39:04.370Z,3.10
2023-08-02T07:41:31.977Z,2.80
2023-08-02T07:43:58.597Z,2.20
2023-08-02T07:46:25.387Z,2.30
2023-08-02T07:48:53.129Z,2.60
2023-08-02T07:51:20.613Z,2.40
2023-08-02T07:53:47.807Z,2.42
2023-08-02T07:56:14.498Z,2.20
2023-08-02T07:58:41.166Z,2.30
2023-08-02T08:01:09.236Z,2.30
2023-08-02T08:03:36.799Z,2.92
2023-08-02T08:06:13.810Z,2.60
2023-08-02T08:08:41.327Z,2.47
2023-08-02T08:11:07.981Z,2.20
2023-08-02T08:13:34.743Z,2.22
2023-08-02T08:16:02.348Z,2.47
2023-08-02T08:18:31.145Z,2.83
2023-08-02T08:20:58.371Z,1.90
2023-08-02T08:23:25.004Z,2.10
2023-08-02T08:25:51.606Z,2.25
2023-08-02T08:28:18.857Z,2.55
2023-08-02T08:30:45.754Z,2.75
2023-08-02T08:33:12.366Z,2.60
2023-08-02T08:35:39.070Z,1.85
2023-08-02T08:38:05.711Z,1.90
2023-08-02T08:40:33.507Z,1.88
2023-08-02T08:43:01.753Z,2.00
2023-08-02T08:45:29.131Z,1.90
2023-08-02T08:47:55.776Z,1.80
2023-08-02T08:50:23.493Z,1.90
2023-08-02T08:52:53.906Z,1.90
2023-08-02T08:55:22.424Z,2.13
2023-08-02T08:57:51.534Z,2.22
2023-08-02T09:00:19.152Z,2.05
2023-08-02T09:02:47.713Z,1.90
2023-08-02T09:05:14.800Z,1.92
2023-08-02T09:07:41.415Z,2.00
2023-08-02T09:10:08.609Z,2.00
2023-08-02T09:12:46.185Z,2.20
2023-08-02T09:15:15.421Z,1.75
2023-08-02T09:17:53.105Z,1.98
2023-08-02T09:20:22.113Z,1.70
2023-08-02T09:22:48.847Z,1.83
2023-08-02T09:25:24.707Z,1.90
2023-08-02T09:27:52.876Z,2.17
2023-08-02T09:30:36.001Z,2.40
2023-08-02T09:33:04.396Z,2.05
2023-08-02T09:35:46.208Z,2.00
2023-08-02T09:38:12.937Z,2.22
2023-08-02T09:41:09.844Z,2.00
2023-08-02T09:43:28.647Z,2.15
2023-08-02T09:45:56.038Z,2.60
2023-08-02T09:48:35.181Z,3.40
2023-08-02T09:51:04.788Z,4.18
2023-08-02T09:53:32.396Z,3.20
2023-08-02T09:56:01.770Z,2.60
2023-08-02T09:58:31.884Z,2.45
2023-08-02T10:01:00.070Z,2.85
2023-08-02T10:03:28.912Z,2.42
2023-08-02T10:05:59.422Z,2.33
2023-08-02T10:08:30.971Z,3.05
2023-08-02T10:10:59.233Z,2.50
2023-08-02T10:13:27.828Z,2.13
2023-08-02T10:15:56.957Z,2.40
2023-08-02T10:18:26.044Z,2.17
2023-08-02T10:20:54.128Z,2.22
2023-08-02T10:23:20.748Z,1.65
2023-08-02T10:25:48.684Z,2.25
2023-08-02T10:28:16.343Z,2.30
2023-08-02T10:30:43.282Z,1.95
2023-08-02T10:33:22.105Z,2.60
2023-08-02T10:36:08.739Z,1.80
2023-08-02T10:38:41.216Z,1.88
2023-08-02T10:41:12.812Z,2.33
2023-08-02T10:43:54.480Z,5.30
2023-08-02T10:46:29.551Z,2.88
2023-08-02T10:49:19.001Z,3.65
2023-08-02T10:51:46.642Z,1.88
2023-08-02T10:54:24.324Z,2.30
2023-08-02T10:56:54.418Z,2.42
2023-08-02T10:59:24.072Z,2.00
2023-08-02T11:01:58.509Z,2.05
2023-08-02T11:04:26.181Z,1.90
2023-08-02T11:06:53.371Z,1.92
2023-08-02T11:09:31.108Z,2.17
2023-08-02T11:11:57.706Z,1.88
2023-08-02T11:14:28.363Z,1.95
2023-08-02T11:16:55.576Z,2.10
2023-08-02T11:19:23.666Z,2.08
2023-08-02T11:21:55.452Z,2.65
2023-08-02T11:24:25.649Z,1.90
2023-08-02T11:26:56.437Z,1.50
2023-08-02T11:29:23.532Z,2.13
2023-08-02T11:31:51.967Z,2.10
2023-08-02T11:34:20.383Z,2.15
2023-08-02T11:36:49.901Z,2.10
2023-08-02T11:39:18.499Z,1.95
2023-08-02T11:41:45.437Z,1.80
2023-08-02T11:44:19.746Z,2.10
2023-08-02T11:46:56.979Z,2.10
2023-08-02T11:49:24.491Z,1.90
2023-08-02T11:51:51.235Z,2.20
2023-08-02T11:54:18.190Z,2.70
2023-08-02T11:56:45.813Z,2.13
2023-08-02T11:59:13.387Z,2.50
2023-08-02T12:01:43.779Z,2.17
2023-08-02T12:04:10.634Z,1.98
2023-08-02T12:06:53.862Z,1.90
2023-08-02T12:09:38.809Z,2.05
2023-08-02T12:12:06.072Z,2.15
2023-08-02T12:14:34.219Z,1.92
2023-08-02T12:17:02.493Z,1.85
2023-08-02T12:19:44.766Z,2.33
2023-08-02T12:22:13.679Z,2.45
2023-08-02T12:24:40.462Z,2.28
2023-08-02T12:27:22.864Z,2.15
2023-08-02T12:30:07.320Z,1.97
2023-08-02T12:32:33.963Z,2.55
2023-08-02T12:35:12.346Z,2.30
2023-08-02T12:37:39.623Z,2.40
2023-08-02T12:40:07.094Z,2.03
2023-08-02T12:42:35.902Z,2.10
2023-08-02T12:45:16.523Z,2.90
2023-08-02T12:47:44.250Z,2.05
2023-08-02T12:50:11.212Z,2.65
2023-08-02T12:52:37.877Z,2.50
2023-08-02T12:55:04.885Z,2.13
2023-08-02T12:57:31.573Z,2.38
2023-08-02T13:00:00.389Z,3.90
2023-08-02T13:02:27.401Z,6.50
2023-08-02T13:04:54.061Z,4.75
2023-08-02T13:07:21.234Z,2.90
2023-08-02T13:09:51.496Z,3.40
2023-08-02T13:12:24.290Z,3.03
2023-08-02T13:14:59.076Z,2.40
2023-08-02T13:17:25.878Z,2.35
2023-08-02T13:19:52.605Z,3.40
2023-08-02T13:22:19.307Z,3.25
2023-08-02T13:24:45.992Z,2.80
2023-08-02T13:27:12.627Z,2.40
2023-08-02T13:29:39.234Z,1.95
2023-08-02T13:32:06.035Z,1.70
2023-08-02T13:34:32.743Z,2.00
2023-08-02T13:36:59.448Z,2.38
2023-08-02T13:39:27.587Z,2.22
2023-08-02T13:41:54.243Z,1.83
2023-08-02T13:44:20.925Z,2.60
2023-08-02T13:46:47.648Z,2.92
2023-08-02T13:49:14.535Z,2.58
2023-08-02T13:51:41.455Z,3.13
2023-08-02T13:54:08.154Z,4.25
2023-08-02T13:56:34.762Z,2.67
2023-08-02T13:59:02.556Z,2.22
2023-08-02T14:01:31.102Z,2.42
2023-08-02T14:03:57.767Z,2.22
2023-08-02T14:06:24.706Z,2.22
2023-08-02T14:08:51.472Z,2.10
2023-08-02T14:11:18.481Z,2.35
2023-08-02T14:13:45.125Z,2.08
2023-08-02T14:16:11.752Z,1.50
2023-08-02T14:18:38.426Z,1.90
2023-08-02T14:21:05.142Z,2.10
2023-08-02T14:23:33.610Z,2.00
2023-08-02T14:26:00.319Z,2.38
2023-08-02T14:28:26.946Z,2.22
2023-08-02T14:30:53.643Z,1.80
2023-08-02T14:33:20.307Z,2.00
2023-08-02T14:35:46.923Z,2.08
2023-08-02T14:38:13.536Z,1.90
2023-08-02T14:40:40.169Z,1.95
2023-08-02T14:43:06.838Z,2.33
2023-08-02T14:45:33.502Z,2.30
2023-08-02T14:48:00.178Z,1.88
2023-08-02T14:50:27.900Z,2.05
2023-08-02T14:52:55.144Z,1.70
2023-08-02T14:55:21.944Z,2.03
2023-08-02T14:57:48.768Z,1.90
2023-08-02T15:00:15.770Z,2.00
2023-08-02T15:02:42.637Z,1.98
2023-08-02T15:05:09.712Z,2.08
2023-08-02T15:07:36.374Z,1.70
2023-08-02T15:10:03.242Z,2.13
2023-08-02T15:12:29.912Z,2.20
2023-08-02T15:14:56.598Z,2.00
2023-08-02T15:17:23.209Z,1.90
2023-08-02T15:19:49.848Z,1.67
2023-08-02T15:22:16.476Z,2.28
2023-08-02T15:24:43.083Z,2.03
2023-08-02T15:27:09.708Z,2.05
2023-08-02T15:29:36.369Z,2.08
2023-08-02T15:32:03.773Z,2.58
2023-08-02T15:34:30.567Z,1.85
2023-08-02T15:36:57.152Z,1.65
2023-08-02T15:39:23.827Z,2.00
2023-08-02T15:41:50.494Z,1.60
2023-08-02T15:44:17.107Z,1.75
2023-08-02T15:46:44.027Z,1.73
2023-08-02T15:49:10.953Z,2.70
2023-08-02T15:51:37.709Z,2.38
2023-08-02T15:54:04.517Z,2.35
2023-08-02T15:56:31.145Z,3.65
2023-08-02T15:58:57.803Z,2.53
2023-08-02T16:01:26.512Z,2.38
2023-08-02T16:03:53.156Z,2.35
2023-08-02T16:06:19.817Z,2.20
2023-08-02T16:08:47.118Z,2.55
2023-08-02T16:11:16.336Z,1.98
2023-08-02T16:13:42.943Z,2.30
2023-08-02T16:16:09.832Z,2.22
2023-08-02T16:18:36.465Z,1.70
2023-08-02T16:21:03.504Z,1.92
2023-08-02T16:23:30.314Z,2.40
2023-08-02T16:25:56.988Z,2.20
2023-08-02T16:28:23.634Z,2.15
2023-08-02T16:30:50.320Z,2.00
2023-08-02T16:33:16.957Z,2.08
2023-08-02T16:35:45.368Z,2.65
2023-08-02T16:38:15.506Z,2.22
2023-08-02T16:40:45.319Z,1.85
2023-08-02T16:43:13.143Z,1.60
2023-08-02T16:45:40.238Z,1.65
2023-08-02T16:48:07.562Z,1.75
2023-08-02T16:50:34.810Z,1.60
2023-08-02T16:53:01.880Z,1.48
2023-08-02T16:55:29.430Z,1.38
2023-08-02T16:57:57.540Z,1.63
2023-08-02T17:00:24.254Z,1.85
2023-08-02T17:02:51.207Z,2.42
2023-08-02T17:05:17.938Z,2.50
2023-08-02T17:07:45.636Z,1.90
2023-08-02T17:10:12.451Z,1.75
2023-08-02T17:12:39.096Z,1.65
2023-08-02T17:15:06.142Z,2.00
2023-08-02T17:17:33.224Z,1.92
2023-08-02T17:20:00.118Z,1.35
2023-08-02T17:22:26.950Z,1.42
2023-08-02T17:24:53.612Z,1.42
2023-08-02T17:27:20.191Z,1.58
2023-08-02T17:29:46.862Z,1.60
2023-08-02T17:32:13.592Z,1.35
2023-08-02T17:34:40.262Z,1.50
2023-08-02T17:37:06.897Z,1.48
2023-08-02T17:39:33.508Z,1.85
2023-08-02T17:42:02.854Z,1.20
2023-08-02T17:44:29.590Z,1.23
2023-08-02T17:46:56.245Z,1.65
2023-08-02T17:49:22.898Z,1.65
2023-08-02T17:51:49.556Z,1.50
2023-08-02T17:54:16.190Z,1.70
2023-08-02T17:56:42.808Z,1.60
2023-08-02T17:59:09.518Z,1.90
2023-08-02T18:01:36.238Z,1.70
2023-08-02T18:04:02.863Z,1.85
2023-08-02T18:06:30.778Z,1.90
2023-08-02T18:08:57.511Z,1.67
2023-08-02T18:11:24.306Z,1.88
2023-08-02T18:13:50.932Z,1.55
2023-08-02T18:16:17.731Z,1.55
2023-08-02T18:18:44.562Z,1.70
2023-08-02T18:21:12.962Z,1.50
2023-08-02T18:23:40.060Z,1.42
2023-08-02T18:26:12.552Z,1.30
2023-08-02T18:28:46.817Z,1.38
2023-08-02T18:31:18.153Z,1.63
2023-08-02T18:33:46.494Z,1.77
2023-08-02T18:36:15.043Z,1.70
2023-08-02T18:38:43.078Z,1.75
2023-08-02T18:41:24.315Z,1.70
2023-08-02T18:43:52.413Z,2.00
2023-08-02T18:46:22.413Z,1.80
2023-08-02T18:48:53.496Z,1.83
2023-08-02T18:51:22.725Z,1.75
2023-08-02T18:53:51.178Z,1.83
2023-08-02T18:56:19.590Z,1.80
2023-08-02T18:58:48.491Z,1.75
2023-08-02T19:01:15.706Z,1.80
2023-08-02T19:03:42.809Z,1.60
2023-08-02T19:06:09.548Z,1.75
2023-08-02T19:08:38.937Z,1.80
2023-08-02T19:11:17.254Z,1.80
2023-08-02T19:13:49.778Z,2.03
2023-08-02T19:16:16.721Z,1.90
2023-08-02T19:18:43.629Z,1.70
2023-08-02T19:21:14.414Z,1.90
2023-08-02T19:23:44.981Z,1.80
2023-08-02T19:26:17.992Z,2.13
2023-08-02T19:28:45.597Z,2.45
2023-08-02T19:31:12.328Z,2.17
2023-08-02T19:33:45.676Z,1.98
2023-08-02T19:36:23.138Z,2.08
2023-08-02T19:38:50.397Z,2.40
2023-08-02T19:41:26.279Z,2.42
2023-08-02T19:43:52.985Z,2.80
2023-08-02T19:46:21.498Z,2.50
2023-08-02T19:48:48.342Z,2.35
2023-08-02T19:51:15.034Z,2.33
2023-08-02T19:53:48.232Z,2.00
2023-08-02T19:56:20.940Z,2.42
2023-08-02T19:58:47.780Z,2.42
2023-08-02T20:01:14.800Z,2.42
2023-08-02T20:03:41.646Z,3.20
2023-08-02T20:06:09.229Z,2.50
2023-08-02T20:08:36.347Z,2.03
2023-08-02T20:11:05.824Z,2.75
2023-08-02T20:13:43.657Z,3.10
2023-08-02T20:16:33.506Z,3.05
2023-08-02T20:19:01.323Z,2.67
2023-08-02T20:21:27.932Z,3.20
2023-08-02T20:23:57.916Z,2.40
2023-08-02T20:26:26.498Z,3.10
2023-08-02T20:28:56.992Z,2.53
2023-08-02T20:31:33.229Z,2.80
2023-08-02T20:33:59.991Z,3.05
2023-08-02T20:36:26.640Z,2.78
2023-08-02T20:38:55.551Z,2.35
2023-08-02T20:41:27.625Z,2.42
2023-08-02T20:43:56.420Z,2.20
2023-08-02T20:46:28.993Z,2.00
2023-08-02T20:49:00.858Z,2.10
2023-08-02T20:51:31.251Z,1.90
2023-08-02T20:53:59.316Z,2.28
2023-08-02T20:56:26.183Z,1.77
2023-08-02T20:58:52.965Z,2.33
2023-08-02T21:01:19.731Z,2.58
2023-08-02T21:03:48.126Z,1.83
2023-08-02T21:06:15.172Z,2.30
2023-08-02T21:08:43.025Z,1.80
2023-08-02T21:11:10.841Z,2.00
2023-08-02T21:13:37.428Z,1.65
2023-08-02T21:16:04.374Z,1.95
2023-08-02T21:18:33.213Z,2.45
2023-08-02T21:21:00.724Z,2.20
2023-08-02T21:23:27.733Z,2.88
2023-08-02T21:25:58.998Z,2.70
2023-08-02T21:28:28.306Z,2.47
2023-08-02T21:31:00.277Z,3.33
2023-08-02T21:33:31.411Z,3.10
2023-08-02T21:35:59.651Z,4.55
2023-08-02T21:38:29.873Z,4.10
2023-08-02T21:40:59.499Z,4.05
2023-08-02T21:43:28.220Z,3.60
2023-08-02T21:45:58.634Z,3.90
2023-08-02T21:48:25.393Z,4.05
2023-08-02T21:50:52.057Z,3.58
2023-08-02T21:53:23.785Z,4.45
2023-08-02T21:55:53.949Z,3.83
2023-08-02T21:58:28.742Z,4.28
2023-08-02T22:00:55.761Z,3.60
2023-08-02T22:03:22.579Z,4.10
2023-08-02T22:05:49.382Z,5.07
2023-08-02T22:08:28.195Z,4.18
2023-08-02T22:10:54.826Z,3.55
2023-08-02T22:13:21.694Z,3.75
2023-08-02T22:15:48.318Z,4.22
2023-08-02T22:18:16.758Z,3.97
2023-08-02T22:20:43.989Z,3.90
2023-08-02T22:23:11.228Z,3.85
2023-08-02T22:25:38.131Z,3.38
2023-08-02T22:28:05.732Z,3.72
2023-08-02T22:30:32.414Z,3.85
2023-08-02T22:32:59.470Z,3.47
2023-08-02T22:35:26.301Z,3.50
2023-08-02T22:37:52.916Z,3.17
2023-08-02T22:40:19.610Z,3.80
2023-08-02T22:42:46.189Z,3.92
2023-08-02T22:45:12.783Z,3.28
2023-08-02T22:47:39.441Z,3.80
2023-08-02T22:52:36.166Z,3.83
2023-08-02T22:55:03.103Z,4.40
2023-08-02T22:57:32.773Z,4.70
2023-08-02T22:59:59.730Z,3.50
2023-08-02T23:02:34.144Z,3.95
2023-08-02T23:05:02.365Z,4.15
2023-08-02T23:07:33.773Z,4.80
2023-08-02T23:10:03.261Z,4.20
2023-08-02T23:12:39.237Z,3.55
2023-08-02T23:15:18.074Z,4.05
2023-08-02T23:17:44.709Z,3.78
2023-08-02T23:20:35.329Z,3.78
2023-08-02T23:23:02.676Z,4.28
2023-08-02T23:25:29.473Z,3.80
2023-08-02T23:27:56.467Z,3.85
2023-08-02T23:30:28.426Z,3.85
2023-08-02T23:32:55.205Z,4.10
2023-08-02T23:35:21.927Z,4.03
2023-08-02T23:37:52.465Z,4.50
2023-08-02T23:40:19.122Z,4.22
2023-08-02T23:42:45.741Z,3.38
2023-08-02T23:45:12.374Z,3.50
2023-08-02T23:47:38.965Z,4.15
2023-08-02T23:50:05.992Z,3.83
2023-08-02T23:52:32.575Z,4.40
2023-08-02T23:54:59.158Z,3.90
2023-08-02T23:57:25.767Z,4.20
2023-08-02T23:59:52.368Z,4.50
